createdAt,value
2018-03-24T00:01:11.484Z,64.50
2018-03-24T00:03:39.752Z,64.30
2018-03-24T00:06:08.055Z,65.30
2018-03-24T00:08:36.357Z,65.90
2018-03-24T00:11:05.381Z,64.70
2018-03-24T00:13:33.617Z,64.70
2018-03-24T00:16:01.861Z,64.60
2018-03-24T00:18:30.121Z,64.60
2018-03-24T00:20:58.392Z,64.20
2018-03-24T00:23:26.690Z,63.90
2018-03-24T00:25:54.979Z,64.90
2018-03-24T00:28:23.439Z,65.10
2018-03-24T00:30:51.681Z,65.00
2018-03-24T00:33:20.006Z,64.90
2018-03-24T00:35:48.288Z,66.10
2018-03-24T00:38:16.601Z,65.10
2018-03-24T00:40:45.638Z,65.50
2018-03-24T00:43:14.154Z,65.40
2018-03-24T00:45:45.014Z,64.20
2018-03-24T00:48:14.082Z,64.20
2018-03-24T00:50:43.185Z,64.50
2018-03-24T00:53:14.403Z,64.50
2018-03-24T00:55:43.839Z,64.80
2018-03-24T00:58:12.133Z,65.80
2018-03-24T01:00:42.291Z,66.70
2018-03-24T01:03:10.549Z,66.20
2018-03-24T01:05:39.060Z,65.10
2018-03-24T01:08:07.314Z,66.50
2018-03-24T01:10:35.618Z,64.80
2018-03-24T01:13:04.826Z,64.60
2018-03-24T01:15:33.118Z,65.50
2018-03-24T01:18:01.417Z,64.40
2018-03-24T01:20:29.853Z,64.80
2018-03-24T01:22:58.745Z,64.70
2018-03-24T01:25:27.044Z,65.10
2018-03-24T01:27:56.316Z,66.40
2018-03-24T01:30:24.576Z,65.40
2018-03-24T01:32:52.877Z,64.80
2018-03-24T01:35:21.486Z,64.30
2018-03-24T01:37:49.729Z,64.60
2018-03-24T01:40:17.973Z,64.30
2018-03-24T01:42:46.296Z,64.30
2018-03-24T01:45:14.576Z,63.90
2018-03-24T01:47:42.887Z,64.80
2018-03-24T01:50:11.395Z,64.20
2018-03-24T01:52:40.463Z,64.30
2018-03-24T01:55:08.710Z,65.20
2018-03-24T01:57:37.036Z,66.40
2018-03-24T02:00:06.108Z,64.60
2018-03-24T02:02:34.444Z,64.60
2018-03-24T02:05:02.727Z,64.90
2018-03-24T02:07:31.327Z,65.30
2018-03-24T02:09:59.586Z,63.60
2018-03-24T02:12:27.841Z,64.10
2018-03-24T02:14:56.139Z,65.60
2018-03-24T02:17:24.442Z,63.60
2018-03-24T02:19:52.724Z,62.90
2018-03-24T02:22:20.965Z,63.50
2018-03-24T02:25:04.173Z,64.00
2018-03-24T02:27:33.280Z,63.90
2018-03-24T02:30:01.602Z,63.90
2018-03-24T02:32:29.866Z,65.00
2018-03-24T02:34:58.116Z,63.60
2018-03-24T02:37:26.426Z,64.30
2018-03-24T02:39:54.667Z,65.60
2018-03-24T02:42:22.942Z,63.70
2018-03-24T02:44:51.224Z,63.60
2018-03-24T02:47:19.480Z,65.10
2018-03-24T02:49:48.543Z,64.20
2018-03-24T02:52:16.846Z,64.20
2018-03-24T02:54:45.872Z,62.30
2018-03-24T02:57:14.157Z,62.20
2018-03-24T02:59:42.403Z,64.40
2018-03-24T03:02:11.414Z,64.10
2018-03-24T03:04:39.697Z,64.00
2018-03-24T03:07:08.698Z,64.20
2018-03-24T03:09:37.003Z,64.20
2018-03-24T03:12:05.258Z,64.10
2018-03-24T03:14:33.781Z,64.70
2018-03-24T03:17:02.069Z,63.70
2018-03-24T03:19:30.967Z,62.80
2018-03-24T03:21:59.983Z,62.30
2018-03-24T03:24:28.315Z,62.20
2018-03-24T03:26:56.577Z,62.20
2018-03-24T03:29:24.876Z,62.80
2018-03-24T03:32:08.049Z,63.20
2018-03-24T03:34:36.287Z,63.90
2018-03-24T03:37:04.551Z,63.60
2018-03-24T03:39:32.807Z,62.90
2018-03-24T03:42:01.431Z,62.30
2018-03-24T03:44:29.714Z,63.40
2018-03-24T03:46:58.723Z,62.90
2018-03-24T03:49:27.001Z,62.80
2018-03-24T03:51:55.286Z,63.20
2018-03-24T03:54:23.553Z,63.30
2018-03-24T03:56:51.853Z,63.10
2018-03-24T03:59:20.104Z,63.80
2018-03-24T04:01:48.401Z,63.80
2018-03-24T04:04:16.663Z,63.80
2018-03-24T04:06:44.934Z,64.00
2018-03-24T04:09:13.463Z,64.20
2018-03-24T04:11:41.702Z,63.80
2018-03-24T04:14:09.950Z,65.00
2018-03-24T04:16:38.228Z,64.70
2018-03-24T04:19:06.527Z,64.90
2018-03-24T04:21:34.833Z,63.80
2018-03-24T04:24:03.125Z,64.00
2018-03-24T04:26:31.452Z,63.60
2018-03-24T04:28:59.744Z,64.90
2018-03-24T04:31:28.517Z,64.80
2018-03-24T04:33:57.530Z,64.30
2018-03-24T04:36:25.772Z,64.20
2018-03-24T04:38:54.084Z,64.10
2018-03-24T04:41:22.373Z,63.80
2018-03-24T04:43:50.676Z,65.20
2018-03-24T04:46:18.962Z,62.80
2018-03-24T04:48:47.228Z,63.90
2018-03-24T04:51:15.484Z,64.40
2018-03-24T04:53:43.750Z,64.10
2018-03-24T04:56:12.035Z,63.40
2018-03-24T04:58:40.595Z,64.70
2018-03-24T05:01:09.667Z,63.20
2018-03-24T05:03:37.899Z,63.20
2018-03-24T05:06:06.185Z,63.30
2018-03-24T05:08:34.742Z,63.90
2018-03-24T05:11:03.011Z,63.90
2018-03-24T05:13:32.064Z,63.50
2018-03-24T05:16:00.350Z,63.50
2018-03-24T05:18:28.637Z,64.80
2018-03-24T05:20:56.896Z,64.00
2018-03-24T05:23:25.198Z,64.80
2018-03-24T05:25:53.497Z,63.90
2018-03-24T05:28:21.751Z,64.00
2018-03-24T05:30:50.809Z,64.60
2018-03-24T05:33:19.078Z,64.60
2018-03-24T05:35:47.364Z,65.30
2018-03-24T05:38:15.642Z,65.10
2018-03-24T05:40:43.900Z,63.70
2018-03-24T05:43:12.137Z,64.30
2018-03-24T05:45:41.163Z,63.50
2018-03-24T05:48:09.465Z,63.40
2018-03-24T05:50:37.774Z,65.50
2018-03-24T05:53:06.044Z,65.60
2018-03-24T05:55:34.308Z,65.30
2018-03-24T05:58:02.551Z,65.60
2018-03-24T06:00:30.845Z,65.10
2018-03-24T06:02:59.151Z,65.50
2018-03-24T06:05:27.433Z,66.20
2018-03-24T06:07:55.690Z,66.60
2018-03-24T06:10:23.990Z,67.00
2018-03-24T06:12:52.244Z,66.70
2018-03-24T06:15:20.542Z,64.40
2018-03-24T06:17:48.810Z,65.70
2018-03-24T06:20:17.093Z,65.30
2018-03-24T06:22:45.373Z,66.20
2018-03-24T06:25:13.640Z,66.50
2018-03-24T06:27:41.879Z,65.30
2018-03-24T06:30:25.056Z,64.80
2018-03-24T06:32:53.334Z,66.40
2018-03-24T06:35:21.583Z,65.40
2018-03-24T06:37:49.879Z,65.10
2018-03-24T06:40:18.131Z,65.80
2018-03-24T06:42:46.399Z,64.80
2018-03-24T06:45:14.714Z,65.70
2018-03-24T06:47:42.989Z,66.10
2018-03-24T06:50:11.250Z,65.70
2018-03-24T06:52:39.560Z,65.20
2018-03-24T06:55:08.587Z,65.30
2018-03-24T06:57:36.880Z,65.30
2018-03-24T07:00:06.080Z,64.70
2018-03-24T07:02:34.332Z,65.30
2018-03-24T07:05:02.625Z,65.40
2018-03-24T07:07:30.909Z,65.70
2018-03-24T07:09:59.151Z,65.60
2018-03-24T07:12:28.223Z,66.90
2018-03-24T07:14:56.526Z,66.20
2018-03-24T07:17:25.563Z,67.30
2018-03-24T07:19:53.810Z,67.20
2018-03-24T07:22:22.082Z,66.60
2018-03-24T07:24:50.330Z,65.90
2018-03-24T07:27:19.351Z,66.00
2018-03-24T07:29:47.607Z,66.00
2018-03-24T07:32:16.635Z,65.10
2018-03-24T07:34:44.898Z,65.10
2018-03-24T07:37:13.194Z,66.00
2018-03-24T07:39:41.760Z,64.70
2018-03-24T07:42:10.033Z,69.20
2018-03-24T07:44:38.269Z,67.40
2018-03-24T07:47:07.089Z,66.50
2018-03-24T07:49:36.161Z,66.50
2018-03-24T07:52:04.466Z,66.40
2018-03-24T07:54:33.483Z,66.20
2018-03-24T07:57:01.804Z,66.20
2018-03-24T07:59:30.086Z,65.20
2018-03-24T08:01:58.353Z,65.80
2018-03-24T08:04:26.637Z,64.90
2018-03-24T08:06:54.929Z,66.70
2018-03-24T08:09:23.182Z,66.10
2018-03-24T08:11:51.463Z,66.00
2018-03-24T08:14:19.772Z,66.20
2018-03-24T08:16:48.802Z,66.00
2018-03-24T08:19:17.128Z,66.00
2018-03-24T08:21:45.416Z,66.00
2018-03-24T08:24:14.414Z,66.10
2018-03-24T08:26:43.477Z,66.00
2018-03-24T08:29:11.747Z,65.80
2018-03-24T08:31:39.989Z,65.60
2018-03-24T08:34:08.232Z,65.40
2018-03-24T08:36:37.255Z,65.30
2018-03-24T08:39:05.548Z,65.30
2018-03-24T08:41:33.805Z,65.50
2018-03-24T08:44:02.095Z,65.20
2018-03-24T08:46:30.330Z,64.70
2018-03-24T08:48:58.580Z,64.60
2018-03-24T08:51:26.820Z,64.50
2018-03-24T08:53:55.122Z,64.00
2018-03-24T08:56:23.432Z,63.90
2018-03-24T08:58:51.698Z,63.70
2018-03-24T09:01:19.982Z,63.90
2018-03-24T09:03:48.968Z,64.00
2018-03-24T09:06:17.282Z,63.40
2018-03-24T09:08:46.395Z,63.70
2018-03-24T09:11:14.651Z,63.80
2018-03-24T09:13:43.700Z,63.10
2018-03-24T09:16:11.953Z,63.00
2018-03-24T09:18:40.251Z,62.70
2018-03-24T09:21:08.497Z,62.80
2018-03-24T09:23:36.751Z,62.30
2018-03-24T09:26:05.769Z,61.00
2018-03-24T09:28:34.015Z,61.00
2018-03-24T09:31:02.297Z,61.00
2018-03-24T09:33:31.353Z,61.00
2018-03-24T09:36:00.348Z,61.40
2018-03-24T09:38:28.607Z,60.70
2018-03-24T09:40:56.849Z,60.80
2018-03-24T09:43:25.866Z,61.00
2018-03-24T09:45:54.147Z,60.90
2018-03-24T09:48:22.439Z,59.90
2018-03-24T09:50:50.705Z,60.80
2018-03-24T09:53:19.030Z,59.90
2018-03-24T09:55:47.252Z,60.00
2018-03-24T09:58:15.545Z,59.70
2018-03-24T10:00:43.837Z,58.60
2018-03-24T10:03:12.084Z,57.60
2018-03-24T10:05:40.349Z,56.40
2018-03-24T10:08:08.673Z,57.90
2018-03-24T10:10:36.959Z,58.20
2018-03-24T10:13:05.260Z,57.60
2018-03-24T10:15:33.615Z,54.40
2018-03-24T10:18:01.904Z,55.00
2018-03-24T10:23:27.883Z,55.50
2018-03-24T10:25:56.163Z,54.90
2018-03-24T10:28:24.417Z,54.20
2018-03-24T10:30:53.497Z,55.40
2018-03-24T10:33:21.815Z,55.40
2018-03-24T10:35:50.071Z,54.10
2018-03-24T10:38:19.145Z,55.00
2018-03-24T10:40:47.441Z,54.30
2018-03-24T10:43:21.457Z,53.40
2018-03-24T10:45:50.509Z,52.60
2018-03-24T10:48:18.838Z,52.60
2018-03-24T10:50:47.850Z,50.90
2018-03-24T10:53:16.150Z,50.90
2018-03-24T10:55:44.415Z,51.50
2018-03-24T10:58:12.665Z,51.00
2018-03-24T11:00:40.985Z,50.50
2018-03-24T11:03:09.249Z,50.70
2018-03-24T11:05:37.530Z,50.50
2018-03-24T11:08:06.732Z,50.30
2018-03-24T11:10:34.996Z,51.10
2018-03-24T11:13:03.250Z,51.90
2018-03-24T11:15:31.505Z,50.60
2018-03-24T11:18:00.579Z,49.40
2018-03-24T11:20:28.886Z,49.30
2018-03-24T11:22:57.948Z,49.40
2018-03-24T11:25:26.259Z,49.50
2018-03-24T11:27:54.545Z,49.80
2018-03-24T11:30:23.627Z,49.10
2018-03-24T11:32:51.957Z,49.10
2018-03-24T11:35:20.274Z,50.40
2018-03-24T11:37:48.570Z,49.00
2018-03-24T11:40:17.879Z,48.80
2018-03-24T11:42:46.909Z,47.40
2018-03-24T11:45:15.200Z,47.50
2018-03-24T11:47:43.467Z,48.90
2018-03-24T11:50:11.814Z,48.60
2018-03-24T11:52:40.025Z,47.70
2018-03-24T11:55:08.315Z,48.40
2018-03-24T11:57:36.592Z,47.40
2018-03-24T12:00:14.827Z,46.90
2018-03-24T12:02:43.152Z,48.50
2018-03-24T12:05:11.446Z,48.70
2018-03-24T12:07:39.740Z,49.90
2018-03-24T12:10:08.046Z,48.00
2018-03-24T12:12:37.058Z,48.70
2018-03-24T12:15:06.127Z,47.60
2018-03-24T12:17:34.411Z,47.60
2018-03-24T12:20:02.729Z,46.70
2018-03-24T12:22:31.012Z,47.20
2018-03-24T12:25:00.748Z,48.20
2018-03-24T12:27:29.076Z,47.10
2018-03-24T12:29:58.078Z,48.10
2018-03-24T12:32:26.341Z,48.10
2018-03-24T12:34:55.400Z,48.20
2018-03-24T12:37:23.739Z,48.10
2018-03-24T12:39:51.987Z,47.40
2018-03-24T12:42:21.017Z,48.90
2018-03-24T12:44:49.328Z,48.70
2018-03-24T12:47:17.580Z,48.50
2018-03-24T12:49:45.927Z,48.40
2018-03-24T12:52:14.167Z,48.30
2018-03-24T12:54:42.466Z,48.60
2018-03-24T12:57:11.517Z,49.90
2018-03-24T12:59:39.795Z,49.10
2018-03-24T13:02:08.037Z,47.80
2018-03-24T13:04:36.305Z,46.20
2018-03-24T13:07:05.376Z,43.00
2018-03-24T13:09:33.652Z,42.80
2018-03-24T13:12:01.963Z,46.80
2018-03-24T13:14:30.249Z,47.00
2018-03-24T13:16:58.500Z,43.90
2018-03-24T13:19:27.527Z,46.50
2018-03-24T13:21:55.821Z,46.40
2018-03-24T13:24:25.283Z,40.50
2018-03-24T13:26:54.298Z,41.70
2018-03-24T13:29:22.619Z,41.60
2018-03-24T13:31:50.914Z,41.00
2018-03-24T13:34:19.174Z,40.70
2018-03-24T13:36:47.421Z,42.30
2018-03-24T13:39:15.738Z,42.10
2018-03-24T13:41:43.991Z,40.60
2018-03-24T13:44:13.022Z,42.70
2018-03-24T13:46:42.090Z,40.60
2018-03-24T13:49:10.405Z,40.40
2018-03-24T13:51:39.464Z,41.70
2018-03-24T13:54:07.706Z,41.80
2018-03-24T13:56:36.026Z,39.80
2018-03-24T13:59:04.318Z,43.70
2018-03-24T14:01:32.659Z,42.90
2018-03-24T14:04:00.902Z,41.80
2018-03-24T14:06:29.180Z,38.40
2018-03-24T14:08:57.487Z,41.80
2018-03-24T14:11:25.781Z,40.30
2018-03-24T14:13:54.840Z,38.10
2018-03-24T14:16:23.141Z,38.20
2018-03-24T14:18:51.472Z,41.10
2018-03-24T14:21:20.530Z,38.80
2018-03-24T14:23:49.641Z,39.30
2018-03-24T14:26:17.907Z,39.20
2018-03-24T14:28:46.174Z,38.10
2018-03-24T14:31:14.480Z,36.60
2018-03-24T14:33:42.794Z,38.20
2018-03-24T14:36:11.089Z,36.40
2018-03-24T14:38:39.385Z,37.60
2018-03-24T14:41:07.686Z,38.00
2018-03-24T14:43:36.788Z,38.80
2018-03-24T14:46:05.107Z,38.10
2018-03-24T14:48:33.384Z,37.10
2018-03-24T14:51:01.714Z,37.10
2018-03-24T14:53:30.021Z,37.50
2018-03-24T14:55:59.102Z,38.30
2018-03-24T14:58:27.862Z,38.30
2018-03-24T15:00:56.222Z,37.50
2018-03-24T15:03:25.014Z,38.70
2018-03-24T15:05:53.976Z,37.20
2018-03-24T15:08:22.290Z,37.80
2018-03-24T15:10:50.592Z,37.30
2018-03-24T15:13:20.487Z,38.30
2018-03-24T15:15:48.772Z,38.40
2018-03-24T15:18:17.052Z,36.50
2018-03-24T15:20:45.351Z,38.40
2018-03-24T15:23:13.676Z,37.30
2018-03-24T15:25:42.716Z,36.80
2018-03-24T15:28:10.969Z,36.80
2018-03-24T15:30:51.937Z,38.40
2018-03-24T15:33:31.941Z,38.50
2018-03-24T15:36:13.751Z,37.60
2018-03-24T15:38:42.001Z,37.50
2018-03-24T15:41:11.625Z,38.50
2018-03-24T15:43:40.713Z,38.90
2018-03-24T15:46:09.865Z,39.10
2018-03-24T15:48:38.113Z,39.10
2018-03-24T15:51:06.455Z,39.00
2018-03-24T15:53:34.749Z,38.80
2018-03-24T15:56:03.826Z,39.60
2018-03-24T15:58:32.134Z,39.50
2018-03-24T16:01:00.446Z,38.50
2018-03-24T16:03:28.710Z,38.50
2018-03-24T16:05:57.011Z,38.50
2018-03-24T16:08:25.328Z,39.10
2018-03-24T16:10:54.342Z,39.60
2018-03-24T16:13:22.636Z,39.60
2018-03-24T16:15:50.884Z,39.30
2018-03-24T16:18:19.146Z,39.30
2018-03-24T16:20:48.229Z,39.50
2018-03-24T16:23:16.555Z,39.50
2018-03-24T16:25:44.854Z,38.50
2018-03-24T16:28:13.110Z,38.80
2018-03-24T16:30:41.381Z,39.10
2018-03-24T16:33:09.675Z,39.30
2018-03-24T16:35:37.957Z,38.30
2018-03-24T16:38:06.209Z,39.10
2018-03-24T16:40:34.526Z,38.90
2018-03-24T16:43:02.817Z,39.00
2018-03-24T16:45:31.103Z,38.80
2018-03-24T16:47:59.363Z,39.00
2018-03-24T16:50:28.602Z,39.10
2018-03-24T16:52:56.852Z,40.20
2018-03-24T16:55:25.153Z,39.70
2018-03-24T16:57:54.240Z,39.20
2018-03-24T17:00:23.269Z,39.30
2018-03-24T17:02:51.558Z,39.30
2018-03-24T17:05:19.806Z,39.30
2018-03-24T17:07:48.251Z,39.40
2018-03-24T17:10:18.056Z,39.40
2018-03-24T17:12:46.302Z,39.30
2018-03-24T17:15:14.602Z,39.70
2018-03-24T17:17:42.839Z,39.50
2018-03-24T17:20:11.105Z,39.90
2018-03-24T17:22:40.183Z,39.70
2018-03-24T17:25:08.473Z,39.70
2018-03-24T17:27:37.541Z,39.70
2018-03-24T17:30:05.805Z,39.70
2018-03-24T17:32:34.047Z,40.20
2018-03-24T17:35:02.384Z,39.80
2018-03-24T17:37:30.694Z,39.80
2018-03-24T17:39:59.007Z,40.30
2018-03-24T17:42:27.314Z,40.10
2018-03-24T17:44:55.557Z,40.30
2018-03-24T17:47:23.878Z,40.00
2018-03-24T17:49:52.129Z,40.40
2018-03-24T17:52:20.387Z,40.30
2018-03-24T17:54:48.637Z,40.50
2018-03-24T17:57:16.904Z,40.60
2018-03-24T17:59:45.915Z,40.40
2018-03-24T18:02:15.064Z,40.40
2018-03-24T18:04:43.345Z,40.50
2018-03-24T18:07:11.607Z,40.70
2018-03-24T18:09:39.869Z,40.80
2018-03-24T18:12:08.122Z,41.70
2018-03-24T18:14:36.389Z,41.80
2018-03-24T18:17:04.643Z,41.80
2018-03-24T18:19:33.705Z,42.00
2018-03-24T18:22:02.005Z,41.90
2018-03-24T18:24:30.300Z,41.80
2018-03-24T18:26:59.341Z,42.00
2018-03-24T18:29:27.584Z,42.00
2018-03-24T18:31:55.884Z,42.10
2018-03-24T18:34:24.141Z,42.10
2018-03-24T18:36:52.392Z,42.30
2018-03-24T18:39:20.689Z,42.30
2018-03-24T18:41:48.898Z,42.40
2018-03-24T18:44:17.199Z,42.50
2018-03-24T18:46:45.433Z,42.50
2018-03-24T18:49:13.721Z,42.60
2018-03-24T18:51:41.966Z,42.80
2018-03-24T18:54:11.005Z,42.70
2018-03-24T18:56:39.324Z,42.70
2018-03-24T18:59:07.609Z,42.70
2018-03-24T19:01:36.639Z,43.10
2018-03-24T19:04:04.878Z,43.00
2018-03-24T19:06:33.911Z,43.10
2018-03-24T19:09:02.146Z,43.00
2018-03-24T19:11:31.236Z,43.40
2018-03-24T19:14:00.380Z,43.40
2018-03-24T19:16:28.670Z,43.50
2018-03-24T19:18:56.966Z,43.40
2018-03-24T19:21:25.215Z,43.50
2018-03-24T19:23:53.513Z,43.40
2018-03-24T19:26:21.790Z,43.50
2018-03-24T19:28:50.053Z,43.50
2018-03-24T19:31:18.337Z,43.50
2018-03-24T19:33:46.599Z,43.70
2018-03-24T19:36:14.830Z,43.80
2018-03-24T19:38:43.894Z,43.80
2018-03-24T19:41:12.171Z,43.80
2018-03-24T19:43:40.508Z,43.80
2018-03-24T19:46:08.751Z,44.00
2018-03-24T19:48:36.993Z,44.20
2018-03-24T19:51:05.349Z,44.40
2018-03-24T19:53:33.595Z,44.40
2018-03-24T19:56:02.621Z,44.40
2018-03-24T19:58:30.960Z,44.40
2018-03-24T20:01:00.037Z,44.50
2018-03-24T20:03:28.360Z,44.50
2018-03-24T20:05:56.659Z,44.50
2018-03-24T20:08:24.941Z,44.40
2018-03-24T20:10:53.189Z,44.30
2018-03-24T20:13:22.237Z,44.40
2018-03-24T20:15:50.497Z,44.40
2018-03-24T20:18:18.837Z,44.40
2018-03-24T20:20:47.898Z,44.60
2018-03-24T20:23:16.169Z,44.60
2018-03-24T20:25:45.213Z,45.00
2018-03-24T20:28:13.452Z,45.00
2018-03-24T20:30:41.731Z,44.30
2018-03-24T20:33:10.025Z,44.50
2018-03-24T20:35:39.127Z,44.60
2018-03-24T20:38:08.197Z,44.80
2018-03-24T20:40:36.436Z,44.80
2018-03-24T20:43:04.737Z,45.60
2018-03-24T20:45:32.991Z,46.20
2018-03-24T20:48:01.304Z,45.80
2018-03-24T20:50:29.596Z,45.10
2018-03-24T20:52:57.914Z,45.30
2018-03-24T20:55:26.214Z,45.30
2018-03-24T20:57:54.474Z,45.00
2018-03-24T21:00:22.743Z,45.30
2018-03-24T21:02:51.021Z,45.50
2018-03-24T21:05:19.335Z,45.80
2018-03-24T21:07:47.676Z,46.10
2018-03-24T21:10:15.959Z,45.70
2018-03-24T21:12:44.258Z,45.80
2018-03-24T21:15:12.531Z,46.10
2018-03-24T21:17:40.791Z,46.30
2018-03-24T21:20:09.119Z,46.30
2018-03-24T21:22:37.432Z,45.70
2018-03-24T21:25:06.476Z,45.80
2018-03-24T21:27:34.756Z,45.70
2018-03-24T21:30:03.889Z,45.90
2018-03-24T21:32:32.968Z,46.70
2018-03-24T21:35:01.232Z,46.60
2018-03-24T21:37:29.535Z,46.00
2018-03-24T21:39:57.847Z,46.40
2018-03-24T21:42:26.169Z,46.30
2018-03-24T21:44:54.480Z,46.60
2018-03-24T21:47:23.517Z,47.40
2018-03-24T21:49:51.784Z,47.40
2018-03-24T21:52:20.084Z,48.00
2018-03-24T21:54:48.363Z,48.00
2018-03-24T21:57:16.640Z,46.60
2018-03-24T21:59:44.945Z,46.20
2018-03-24T22:02:13.976Z,46.30
2018-03-24T22:04:42.231Z,46.30
2018-03-24T22:07:11.287Z,46.20
2018-03-24T22:09:39.559Z,46.10
2018-03-24T22:12:07.790Z,46.40
2018-03-24T22:14:36.101Z,46.70
2018-03-24T22:17:04.364Z,47.20
2018-03-24T22:19:32.686Z,47.70
2018-03-24T22:22:00.940Z,47.70
2018-03-24T22:24:29.237Z,48.60
2018-03-24T22:26:57.503Z,48.50
2018-03-24T22:29:25.789Z,48.90
2018-03-24T22:31:54.101Z,48.10
2018-03-24T22:34:22.377Z,48.20
2018-03-24T22:36:50.609Z,48.30
2018-03-24T22:39:18.900Z,49.20
2018-03-24T22:41:47.181Z,48.50
2018-03-24T22:44:15.470Z,48.60
2018-03-24T22:46:43.735Z,48.80
2018-03-24T22:49:12.021Z,48.90
2018-03-24T22:51:41.080Z,49.80
2018-03-24T22:54:10.130Z,47.60
2018-03-24T22:56:38.381Z,47.60
2018-03-24T22:59:07.454Z,47.50
2018-03-24T23:01:35.735Z,47.40
2018-03-24T23:04:04.049Z,48.40
2018-03-24T23:06:33.090Z,48.10
2018-03-24T23:09:01.378Z,48.10
2018-03-24T23:11:29.676Z,47.80
2018-03-24T23:13:57.958Z,48.80
2018-03-24T23:16:26.246Z,49.50
2018-03-24T23:18:54.534Z,48.30
2018-03-24T23:21:23.583Z,48.00
2018-03-24T23:23:51.869Z,48.00
2018-03-24T23:26:20.126Z,48.40
2018-03-24T23:28:48.384Z,49.00
2018-03-24T23:31:16.622Z,48.70
2018-03-24T23:33:45.638Z,48.80
2018-03-24T23:36:13.917Z,48.70
2018-03-24T23:38:42.210Z,48.60
2018-03-24T23:41:10.442Z,49.00
2018-03-24T23:43:38.737Z,49.20
2018-03-24T23:46:07.741Z,49.00
2018-03-24T23:48:35.998Z,48.90
2018-03-24T23:51:05.006Z,50.00
2018-03-24T23:53:33.300Z,50.00
2018-03-24T23:56:01.543Z,50.10
2018-03-24T23:58:30.566Z,49.30
